Sandy Springs, Georgia
Current Conditions -  °F | °C
As of 9:53 AM on Monday 22 Dec 2014 (Local Time) from KPDK Reporting Station
Haze Haze  
Wind Chill: 38°   Ceiling: 400
Heat Index: 43°   Visibility: 1.5mi
Dew Point: 42°   Wind: 8mph
Humidity: 97%   Direction: 60°ENE
Pressure: 30.03"   Gusts: 16mph
Location:  33.92°N, 84.38°W
Report Text: KPDK 221453Z 06007G14KT 1 1/2SM BR OVC004 06/06 A3003 RMK AO2 SLP176 T00610056 56008
Loading
Personal Weather Stations






























Interactive Weather Map New forecast layout! Learn more

10-Day Weather Forecast

Advertisements
Track Severe Weather on mobile